Saltillo, Tennessee
Current Conditions -  °F | °C
As of 3:35 PM on Saturday 22 Nov 2014 (Local Time) from KSNH Reporting Station
Broken Clouds Broken Clouds  
Wind Chill: 63°   Ceiling: 10000
Heat Index: 63°   Visibility: 10mi
Dew Point: 36°   Wind: 5mph
Humidity: 37%   Direction: 140°SE
Pressure: 30.13"   Gusts: NA
Location:  35.38°N, 88.21°W
Report Text: KSNH 222135Z AUTO 14004KT 10SM FEW075 BKN100 17/02 A3013 RMK
Loading
Personal Weather Stations






























Interactive Weather Map New forecast layout! Learn more

10-Day Weather Forecast

Advertisements
Track Severe Weather on mobile